createdAt,value
2017-11-21T00:02:23.756Z,1.70
2017-11-21T00:04:52.041Z,2.70
2017-11-21T00:07:19.565Z,2.70
2017-11-21T00:09:47.088Z,2.73
2017-11-21T00:12:15.225Z,2.60
2017-11-21T00:14:42.767Z,2.57
2017-11-21T00:17:10.294Z,2.00
2017-11-21T00:19:37.806Z,1.77
2017-11-21T00:22:05.346Z,2.60
2017-11-21T00:24:32.839Z,2.50
2017-11-21T00:27:00.394Z,2.17
2017-11-21T00:29:27.935Z,3.27
2017-11-21T00:31:55.473Z,1.93
2017-11-21T00:34:22.985Z,2.53
2017-11-21T00:36:50.481Z,2.57
2017-11-21T00:39:18.050Z,2.30
2017-11-21T00:41:46.312Z,2.20
2017-11-21T00:44:13.820Z,2.90
2017-11-21T00:46:41.357Z,2.50
2017-11-21T00:49:08.859Z,2.67
2017-11-21T00:51:36.429Z,2.27
2017-11-21T00:54:03.914Z,2.60
2017-11-21T00:56:31.419Z,2.70
2017-11-21T00:58:59.806Z,2.30
2017-11-21T01:01:28.180Z,2.90
2017-11-21T01:03:56.479Z,2.23
2017-11-21T01:06:24.030Z,2.70
2017-11-21T01:08:52.400Z,2.10
2017-11-21T01:11:20.003Z,3.13
2017-11-21T01:13:47.628Z,2.63
2017-11-21T01:16:15.194Z,2.87
2017-11-21T01:18:42.744Z,2.60
2017-11-21T01:21:10.295Z,2.40
2017-11-21T01:23:37.873Z,2.53
2017-11-21T01:26:05.482Z,2.33
2017-11-21T01:28:33.023Z,2.20
2017-11-21T01:31:00.590Z,3.00
2017-11-21T01:33:28.196Z,2.10
2017-11-21T01:35:55.710Z,2.80
2017-11-21T01:38:23.229Z,2.83
2017-11-21T01:40:50.736Z,2.63
2017-11-21T01:43:18.290Z,2.67
2017-11-21T01:45:45.812Z,2.13
2017-11-21T01:48:13.323Z,2.87
2017-11-21T01:50:40.824Z,3.33
2017-11-21T01:53:09.153Z,2.90
2017-11-21T01:55:36.730Z,2.77
2017-11-21T01:58:04.248Z,2.30
2017-11-21T02:00:31.752Z,2.70
2017-11-21T02:03:05.166Z,2.83
2017-11-21T02:05:32.685Z,2.67
2017-11-21T02:08:00.287Z,2.30
2017-11-21T02:10:27.831Z,3.00
2017-11-21T02:12:55.342Z,3.30
2017-11-21T02:15:22.901Z,2.60
2017-11-21T02:17:50.472Z,2.60
2017-11-21T02:20:18.040Z,2.37
2017-11-21T02:22:46.400Z,2.07
2017-11-21T02:25:13.982Z,1.80
2017-11-21T02:27:41.542Z,2.40
2017-11-21T02:30:09.093Z,2.20
2017-11-21T02:32:36.729Z,2.13
2017-11-21T02:35:04.286Z,1.93
2017-11-21T02:37:31.902Z,2.03
2017-11-21T02:40:00.244Z,2.33
2017-11-21T02:42:27.884Z,2.43
2017-11-21T02:44:55.473Z,1.80
2017-11-21T02:47:23.047Z,2.13
2017-11-21T02:49:50.700Z,1.63
2017-11-21T02:52:18.268Z,1.40
2017-11-21T02:54:45.881Z,1.80
2017-11-21T02:57:13.476Z,2.70
2017-11-21T02:59:41.156Z,2.03
2017-11-21T03:02:08.793Z,2.80
2017-11-21T03:04:37.110Z,2.03
2017-11-21T03:07:04.676Z,2.30
2017-11-21T03:09:32.265Z,2.10
2017-11-21T03:11:59.857Z,2.27
2017-11-21T03:14:27.473Z,2.03
2017-11-21T03:16:55.052Z,2.03
2017-11-21T03:19:22.605Z,2.03
2017-11-21T03:22:02.165Z,2.10
2017-11-21T03:24:41.730Z,2.13
2017-11-21T03:27:15.247Z,1.87
2017-11-21T03:29:42.807Z,1.70
2017-11-21T03:32:10.309Z,2.20
2017-11-21T03:34:37.831Z,1.90
2017-11-21T03:37:05.402Z,2.40
2017-11-21T03:39:32.919Z,1.90
2017-11-21T03:42:00.461Z,2.30
2017-11-21T03:44:27.977Z,1.67
2017-11-21T03:46:55.480Z,1.80
2017-11-21T03:49:23.022Z,2.20
2017-11-21T03:51:50.537Z,1.70
2017-11-21T03:54:18.113Z,1.73
2017-11-21T03:56:45.658Z,1.43
2017-11-21T03:59:13.218Z,1.10
2017-11-21T04:01:40.759Z,1.27
2017-11-21T04:04:08.349Z,1.53
2017-11-21T04:06:35.885Z,1.60
2017-11-21T04:09:03.559Z,1.80
2017-11-21T04:11:31.857Z,1.37
2017-11-21T04:13:59.391Z,1.27
2017-11-21T04:16:27.695Z,1.10
2017-11-21T04:18:55.192Z,1.37
2017-11-21T04:21:22.690Z,1.40
2017-11-21T04:23:50.243Z,1.70
2017-11-21T04:26:17.795Z,1.30
2017-11-21T04:28:45.336Z,1.73
2017-11-21T04:31:12.872Z,1.10
2017-11-21T04:33:40.444Z,1.43
2017-11-21T04:36:07.959Z,1.00
2017-11-21T04:38:35.459Z,1.27
2017-11-21T04:41:03.775Z,1.00
2017-11-21T04:43:31.325Z,1.33
2017-11-21T04:45:58.842Z,1.10
2017-11-21T04:48:26.335Z,2.20
2017-11-21T04:50:53.852Z,1.30
2017-11-21T04:53:21.345Z,1.30
2017-11-21T04:55:48.894Z,1.00
2017-11-21T04:58:16.404Z,1.30
2017-11-21T05:00:43.943Z,1.60
2017-11-21T05:03:11.525Z,1.67
2017-11-21T05:05:39.036Z,1.23
2017-11-21T05:08:06.562Z,1.27
2017-11-21T05:10:34.105Z,1.13
2017-11-21T05:13:02.367Z,1.30
2017-11-21T05:15:29.890Z,1.43
2017-11-21T05:17:57.457Z,1.40
2017-11-21T05:20:24.996Z,1.40
2017-11-21T05:22:52.495Z,1.23
2017-11-21T05:25:20.023Z,1.30
2017-11-21T05:27:47.561Z,1.23
2017-11-21T05:30:15.066Z,1.50
2017-11-21T05:32:54.427Z,1.53
2017-11-21T05:35:21.988Z,1.37
2017-11-21T05:37:49.547Z,1.37
2017-11-21T05:40:17.144Z,1.80
2017-11-21T05:42:44.785Z,1.70
2017-11-21T05:45:12.335Z,1.67
2017-11-21T05:47:39.896Z,1.50
2017-11-21T05:50:07.398Z,1.20
2017-11-21T05:52:34.950Z,1.20
2017-11-21T05:55:02.449Z,1.70
2017-11-21T05:57:30.713Z,1.40
2017-11-21T05:59:58.274Z,1.63
2017-11-21T06:02:25.777Z,1.73
2017-11-21T06:04:53.315Z,1.40
2017-11-21T06:07:20.894Z,1.50
2017-11-21T06:09:49.201Z,1.83
2017-11-21T06:12:16.767Z,1.83
2017-11-21T06:14:44.329Z,1.30
2017-11-21T06:17:11.880Z,1.40
2017-11-21T06:19:39.431Z,1.43
2017-11-21T06:22:08.038Z,1.80
2017-11-21T06:24:35.708Z,1.60
2017-11-21T06:27:03.345Z,1.50
2017-11-21T06:29:30.872Z,1.80
2017-11-21T06:31:58.491Z,1.50
2017-11-21T06:34:26.818Z,1.10
2017-11-21T06:36:54.345Z,1.30
2017-11-21T06:39:21.936Z,1.80
2017-11-21T06:41:49.475Z,1.60
2017-11-21T06:44:17.044Z,1.30
2017-11-21T06:46:44.538Z,1.30
2017-11-21T06:49:12.079Z,1.57
2017-11-21T06:51:39.598Z,1.70
2017-11-21T06:54:07.117Z,1.60
2017-11-21T06:56:34.709Z,1.30
2017-11-21T06:59:02.215Z,1.50
2017-11-21T07:01:30.560Z,1.50
2017-11-21T07:03:58.131Z,1.10
2017-11-21T07:06:25.767Z,1.37
2017-11-21T07:08:53.309Z,1.00
2017-11-21T07:11:20.850Z,0.90
2017-11-21T07:13:49.275Z,1.47
2017-11-21T07:16:16.800Z,1.60
2017-11-21T07:18:45.111Z,1.30
2017-11-21T07:21:12.687Z,1.53
2017-11-21T07:23:41.014Z,0.97
2017-11-21T07:26:08.573Z,1.07
2017-11-21T07:28:36.143Z,0.97
2017-11-21T07:31:03.646Z,1.50
2017-11-21T07:33:31.186Z,1.27
2017-11-21T07:35:59.519Z,1.00
2017-11-21T07:38:27.042Z,1.47
2017-11-21T07:40:55.328Z,0.93
2017-11-21T07:43:22.870Z,1.43
2017-11-21T07:45:50.706Z,1.03
2017-11-21T07:48:18.303Z,1.47
2017-11-21T07:50:46.660Z,0.90
2017-11-21T07:53:14.184Z,1.43
2017-11-21T07:55:41.726Z,1.20
2017-11-21T07:58:10.047Z,1.33
2017-11-21T08:00:37.599Z,1.70
2017-11-21T08:03:05.145Z,1.60
2017-11-21T08:05:33.437Z,1.10
2017-11-21T08:08:01.040Z,1.40
2017-11-21T08:10:28.615Z,1.73
2017-11-21T08:12:56.151Z,1.63
2017-11-21T08:15:23.769Z,1.73
2017-11-21T08:17:51.376Z,1.40
2017-11-21T08:20:19.024Z,1.67
2017-11-21T08:22:46.610Z,2.20
2017-11-21T08:25:14.895Z,1.53
2017-11-21T08:27:42.468Z,1.77
2017-11-21T08:30:10.010Z,1.77
2017-11-21T08:32:37.517Z,2.37
2017-11-21T08:35:05.075Z,2.30
2017-11-21T08:37:32.605Z,2.00
2017-11-21T08:40:00.227Z,2.50
2017-11-21T08:42:27.775Z,2.27
2017-11-21T08:44:55.308Z,3.43
2017-11-21T08:47:22.876Z,2.90
2017-11-21T08:49:50.408Z,2.37
2017-11-21T08:52:18.861Z,2.20
2017-11-21T08:54:46.418Z,2.30
2017-11-21T08:57:13.971Z,2.10
2017-11-21T08:59:41.520Z,1.80
2017-11-21T09:02:09.047Z,2.20
2017-11-21T09:04:37.356Z,2.20
2017-11-21T09:07:04.869Z,1.97
2017-11-21T09:09:32.438Z,2.30
2017-11-21T09:12:00.004Z,2.20
2017-11-21T09:14:27.608Z,2.57
2017-11-21T09:16:55.913Z,2.30
2017-11-21T09:19:23.562Z,2.30
2017-11-21T09:21:51.171Z,2.20
2017-11-21T09:24:18.692Z,1.90
2017-11-21T09:26:46.260Z,1.97
2017-11-21T09:29:13.772Z,2.20
2017-11-21T09:31:41.285Z,2.00
2017-11-21T09:34:08.833Z,1.77
2017-11-21T09:36:36.392Z,1.90
2017-11-21T09:39:03.903Z,1.80
2017-11-21T09:41:31.448Z,1.50
2017-11-21T09:43:59.275Z,2.17
2017-11-21T09:46:26.846Z,2.97
2017-11-21T09:48:54.407Z,2.20
2017-11-21T09:51:22.769Z,2.40
2017-11-21T09:53:50.382Z,2.13
2017-11-21T09:56:17.940Z,1.90
2017-11-21T09:58:46.265Z,1.90
2017-11-21T10:01:13.844Z,1.87
2017-11-21T10:03:41.395Z,1.93
2017-11-21T10:06:08.969Z,2.23
2017-11-21T10:08:36.544Z,4.60
2017-11-21T10:11:04.095Z,2.50
2017-11-21T10:13:31.670Z,2.20
2017-11-21T10:15:59.192Z,2.47
2017-11-21T10:18:26.774Z,1.97
2017-11-21T10:20:54.294Z,1.47
2017-11-21T10:23:22.436Z,1.67
2017-11-21T10:25:50.062Z,2.00
2017-11-21T10:28:18.352Z,1.50
2017-11-21T10:30:45.861Z,2.10
2017-11-21T10:33:13.403Z,2.37
2017-11-21T10:35:40.996Z,1.70
2017-11-21T10:38:08.617Z,1.93
2017-11-21T10:40:36.148Z,1.90
2017-11-21T10:43:03.736Z,1.67
2017-11-21T10:45:32.069Z,1.67
2017-11-21T10:47:59.622Z,2.23
2017-11-21T10:50:27.155Z,2.30
2017-11-21T10:52:54.719Z,2.10
2017-11-21T10:55:22.250Z,2.37
2017-11-21T10:57:49.816Z,1.70
2017-11-21T11:00:17.317Z,2.30
2017-11-21T11:02:45.057Z,1.70
2017-11-21T11:05:12.628Z,1.87
2017-11-21T11:07:40.178Z,1.77
2017-11-21T11:10:07.719Z,2.03
2017-11-21T11:12:35.486Z,2.40
2017-11-21T11:15:03.022Z,2.50
2017-11-21T11:17:30.600Z,1.90
2017-11-21T11:19:58.124Z,1.80
2017-11-21T11:22:26.425Z,2.07
2017-11-21T11:24:54.038Z,2.40
2017-11-21T11:27:21.582Z,2.03
2017-11-21T11:29:49.124Z,2.10
2017-11-21T11:32:16.660Z,3.00
2017-11-21T11:34:44.363Z,2.10
2017-11-21T11:37:11.928Z,2.47
2017-11-21T11:39:39.462Z,2.57
2017-11-21T11:42:07.034Z,2.50
2017-11-21T11:44:34.577Z,2.30
2017-11-21T11:47:02.150Z,2.27
2017-11-21T11:49:30.445Z,2.37
2017-11-21T11:51:58.706Z,2.50
2017-11-21T11:54:26.270Z,2.20
2017-11-21T11:56:54.586Z,2.30
2017-11-21T11:59:22.109Z,2.20
2017-11-21T12:01:49.643Z,2.20
2017-11-21T12:04:17.176Z,2.77
2017-11-21T12:06:44.687Z,2.70
2017-11-21T12:09:12.238Z,2.40
2017-11-21T12:11:39.872Z,2.90
2017-11-21T12:14:07.433Z,2.90
2017-11-21T12:16:35.732Z,2.60
2017-11-21T12:19:03.256Z,2.23
2017-11-21T12:21:31.820Z,2.50
2017-11-21T12:23:59.360Z,2.80
2017-11-21T12:26:26.932Z,2.53
2017-11-21T12:28:54.458Z,2.60
2017-11-21T12:31:22.005Z,2.60
2017-11-21T12:33:49.562Z,2.53
2017-11-21T12:36:17.073Z,2.30
2017-11-21T12:38:44.632Z,2.33
2017-11-21T12:41:12.141Z,1.90
2017-11-21T12:43:39.744Z,2.50
2017-11-21T12:46:08.069Z,2.70
2017-11-21T12:48:35.608Z,1.90
2017-11-21T12:51:03.166Z,2.20
2017-11-21T12:53:30.763Z,2.20
2017-11-21T12:55:58.284Z,2.70
2017-11-21T12:58:25.826Z,2.93
2017-11-21T13:00:53.428Z,2.60
2017-11-21T13:03:20.962Z,3.53
2017-11-21T13:05:48.506Z,2.57
2017-11-21T13:08:16.003Z,3.00
2017-11-21T13:10:44.320Z,2.60
2017-11-21T13:13:11.878Z,3.27
2017-11-21T13:15:39.422Z,2.60
2017-11-21T13:18:07.732Z,2.20
2017-11-21T13:20:35.307Z,2.83
2017-11-21T13:23:02.815Z,2.63
2017-11-21T13:25:31.152Z,2.70
2017-11-21T13:27:58.671Z,2.60
2017-11-21T13:30:26.239Z,2.33
2017-11-21T13:32:53.772Z,2.70
2017-11-21T13:35:21.297Z,2.73
2017-11-21T13:37:48.841Z,2.70
2017-11-21T13:40:16.372Z,2.60
2017-11-21T13:42:43.892Z,3.50
2017-11-21T13:45:11.534Z,3.10
2017-11-21T13:47:39.072Z,3.20
2017-11-21T13:50:07.364Z,3.20
2017-11-21T13:52:34.911Z,2.60
2017-11-21T13:55:03.227Z,4.33
2017-11-21T13:57:30.780Z,3.50
2017-11-21T13:59:59.099Z,3.50
2017-11-21T14:02:26.639Z,3.40
2017-11-21T14:04:54.199Z,3.57
2017-11-21T14:07:21.714Z,3.67
2017-11-21T14:09:49.232Z,4.27
2017-11-21T14:12:16.782Z,4.07
2017-11-21T14:14:45.079Z,3.93
2017-11-21T14:17:12.613Z,4.03
2017-11-21T14:19:40.949Z,4.60
2017-11-21T14:22:08.535Z,4.33
2017-11-21T14:24:36.042Z,4.60
2017-11-21T14:27:04.367Z,4.23
2017-11-21T14:29:31.905Z,3.70
2017-11-21T14:31:59.424Z,3.53
2017-11-21T14:34:26.988Z,3.70
2017-11-21T14:36:54.527Z,2.73
2017-11-21T14:39:22.072Z,3.50
2017-11-21T14:41:49.649Z,4.13
2017-11-21T14:44:17.188Z,2.97
2017-11-21T14:46:45.466Z,3.77
2017-11-21T14:49:13.044Z,5.20
2017-11-21T14:51:40.579Z,2.60
2017-11-21T14:54:08.872Z,3.20
2017-11-21T14:56:37.273Z,2.30
2017-11-21T14:59:04.821Z,2.43
2017-11-21T15:01:32.410Z,2.33
2017-11-21T15:04:02.880Z,1.77
2017-11-21T15:06:30.449Z,2.17
2017-11-21T15:11:32.432Z,1.93
2017-11-21T15:13:59.962Z,2.23
2017-11-21T15:16:27.518Z,2.27
2017-11-21T15:18:55.017Z,2.70
2017-11-21T15:21:22.585Z,2.93
2017-11-21T15:23:50.139Z,2.77
2017-11-21T15:26:17.677Z,2.37
2017-11-21T15:28:45.369Z,3.23
2017-11-21T15:31:23.073Z,3.70
2017-11-21T15:33:56.848Z,2.90
2017-11-21T15:36:24.385Z,2.37
2017-11-21T15:38:54.110Z,2.73
2017-11-21T15:41:21.661Z,3.00
2017-11-21T15:43:49.963Z,3.47
2017-11-21T15:46:17.462Z,4.70
2017-11-21T15:48:44.965Z,19.77
2017-11-21T15:51:12.517Z,18.17
2017-11-21T15:53:40.054Z,5.50
2017-11-21T15:56:07.600Z,3.90
2017-11-21T15:58:35.143Z,6.43
2017-11-21T16:01:02.641Z,5.30
2017-11-21T16:03:30.209Z,6.53
2017-11-21T16:05:57.746Z,4.10
2017-11-21T16:08:25.316Z,3.27
2017-11-21T16:10:52.818Z,3.33
2017-11-21T16:13:20.396Z,3.77
2017-11-21T16:15:47.939Z,3.57
2017-11-21T16:18:15.458Z,3.60
2017-11-21T16:20:43.040Z,4.37
2017-11-21T16:23:10.528Z,3.63
2017-11-21T16:25:38.045Z,4.17
2017-11-21T16:28:05.627Z,3.47
2017-11-21T16:30:33.126Z,3.63
2017-11-21T16:33:00.730Z,4.20
2017-11-21T16:35:28.291Z,4.47
2017-11-21T16:37:56.594Z,4.50
2017-11-21T16:40:24.135Z,4.70
2017-11-21T16:42:52.404Z,4.00
2017-11-21T16:45:19.950Z,3.70
2017-11-21T16:47:47.463Z,3.50
2017-11-21T16:50:14.986Z,4.03
2017-11-21T16:52:42.521Z,3.10
2017-11-21T16:55:10.073Z,2.93
2017-11-21T16:57:37.617Z,3.60
2017-11-21T17:00:05.123Z,3.80
2017-11-21T17:02:32.619Z,3.30
2017-11-21T17:05:00.186Z,3.87
2017-11-21T17:07:27.742Z,3.43
2017-11-21T17:09:55.245Z,3.40
2017-11-21T17:12:22.795Z,4.30
2017-11-21T17:14:51.125Z,2.93
2017-11-21T17:17:18.641Z,3.83
2017-11-21T17:19:46.971Z,3.27
2017-11-21T17:22:14.462Z,7.00
2017-11-21T17:24:42.002Z,6.37
2017-11-21T17:27:09.526Z,7.00
2017-11-21T17:29:37.067Z,6.50
2017-11-21T17:32:05.320Z,7.90
2017-11-21T17:34:32.868Z,8.27
2017-11-21T17:37:00.371Z,5.07
2017-11-21T17:39:27.907Z,4.50
2017-11-21T17:41:55.460Z,4.90
2017-11-21T17:44:22.988Z,5.13
2017-11-21T17:46:51.338Z,5.77
2017-11-21T17:49:18.890Z,6.00
2017-11-21T17:51:46.444Z,5.20
2017-11-21T17:54:14.590Z,5.00
2017-11-21T17:56:42.148Z,7.00
2017-11-21T17:59:09.657Z,5.33
2017-11-21T18:01:37.174Z,5.70
2017-11-21T18:04:04.746Z,6.57
2017-11-21T18:06:32.251Z,9.43
2017-11-21T18:08:59.782Z,13.87
2017-11-21T18:11:27.345Z,11.60
2017-11-21T18:13:54.886Z,8.10
2017-11-21T18:16:22.393Z,9.50
2017-11-21T18:18:49.956Z,8.80
2017-11-21T18:21:17.466Z,10.53
2017-11-21T18:23:45.025Z,9.50
2017-11-21T18:26:12.584Z,9.30
2017-11-21T18:28:40.148Z,9.27
2017-11-21T18:31:07.657Z,8.90
2017-11-21T18:33:35.190Z,8.47
2017-11-21T18:36:02.729Z,8.87
2017-11-21T18:38:30.232Z,7.70
2017-11-21T18:40:57.807Z,9.93
2017-11-21T18:43:25.355Z,12.83
2017-11-21T18:45:53.671Z,11.90
2017-11-21T18:48:21.203Z,12.70
2017-11-21T18:50:49.532Z,10.93
2017-11-21T18:53:17.089Z,10.50
2017-11-21T18:55:44.626Z,8.60
2017-11-21T18:58:12.165Z,8.03
2017-11-21T19:00:40.495Z,8.03
2017-11-21T19:03:08.041Z,7.20
2017-11-21T19:05:35.591Z,7.40
2017-11-21T19:08:04.816Z,7.00
2017-11-21T19:10:32.329Z,7.97
2017-11-21T19:13:00.897Z,9.50
2017-11-21T19:15:28.423Z,15.13
2017-11-21T19:17:55.985Z,11.60
2017-11-21T19:20:23.489Z,13.97
2017-11-21T19:22:51.017Z,11.93
2017-11-21T19:25:18.906Z,11.80
2017-11-21T19:27:46.415Z,10.67
2017-11-21T19:30:13.953Z,11.03
2017-11-21T19:32:41.467Z,12.30
2017-11-21T19:35:09.743Z,19.50
2017-11-21T19:37:38.076Z,14.13
2017-11-21T19:40:05.634Z,14.53
2017-11-21T19:42:33.193Z,15.70
2017-11-21T19:45:00.757Z,25.80
2017-11-21T19:47:28.297Z,13.90
2017-11-21T19:49:55.834Z,12.80
2017-11-21T19:52:24.176Z,14.00
2017-11-21T19:54:51.727Z,15.43
2017-11-21T19:57:19.243Z,14.33
2017-11-21T19:59:46.777Z,13.00
2017-11-21T20:02:14.313Z,12.00
2017-11-21T20:04:41.822Z,12.27
2017-11-21T20:07:09.395Z,12.80
2017-11-21T20:09:36.951Z,13.10
2017-11-21T20:12:04.476Z,14.50
2017-11-21T20:14:32.016Z,12.10
2017-11-21T20:16:59.510Z,10.83
2017-11-21T20:19:27.158Z,25.63
2017-11-21T20:21:54.698Z,22.93
2017-11-21T20:24:23.010Z,14.80
2017-11-21T20:26:50.558Z,17.93
2017-11-21T20:29:18.902Z,18.70
2017-11-21T20:31:46.462Z,17.07
2017-11-21T20:34:14.031Z,18.57
2017-11-21T20:36:41.586Z,21.07
2017-11-21T20:39:09.101Z,20.53
2017-11-21T20:41:36.645Z,13.97
2017-11-21T20:44:04.186Z,10.80
2017-11-21T20:46:31.733Z,12.27
2017-11-21T20:48:59.322Z,12.07
2017-11-21T20:51:26.837Z,11.00
2017-11-21T20:53:54.427Z,12.37
2017-11-21T20:56:21.984Z,12.43
2017-11-21T20:58:49.531Z,12.90
2017-11-21T21:01:17.099Z,10.70
2017-11-21T21:03:44.625Z,13.20
2017-11-21T21:06:12.143Z,15.63
2017-11-21T21:08:39.727Z,18.40
2017-11-21T21:11:07.256Z,20.50
2017-11-21T21:13:34.806Z,28.87
2017-11-21T21:16:02.367Z,23.40
2017-11-21T21:18:30.675Z,25.27
2017-11-21T21:20:58.229Z,16.93
2017-11-21T21:23:25.812Z,13.57
2017-11-21T21:25:53.319Z,11.60
2017-11-21T21:28:20.885Z,12.70
2017-11-21T21:30:48.450Z,18.03
2017-11-21T21:33:15.982Z,23.77
2017-11-21T21:35:43.592Z,19.93
2017-11-21T21:38:11.155Z,17.10
2017-11-21T21:40:38.677Z,19.33
2017-11-21T21:43:06.237Z,20.10
2017-11-21T21:45:33.771Z,11.30
2017-11-21T21:48:01.312Z,12.80
2017-11-21T21:50:29.986Z,13.30
2017-11-21T21:52:58.353Z,19.83
2017-11-21T21:55:25.874Z,19.73
2017-11-21T21:57:53.447Z,17.40
2017-11-21T22:00:20.966Z,15.30
2017-11-21T22:02:48.505Z,16.00
2017-11-21T22:05:16.077Z,13.00
2017-11-21T22:07:43.624Z,11.47
2017-11-21T22:10:11.121Z,15.90
2017-11-21T22:12:38.731Z,18.37
2017-11-21T22:15:06.301Z,21.07
2017-11-21T22:17:34.655Z,14.07
2017-11-21T22:20:02.178Z,14.53
2017-11-21T22:22:29.697Z,15.53
2017-11-21T22:24:57.267Z,15.20
2017-11-21T22:27:24.813Z,16.07
2017-11-21T22:29:52.391Z,15.03
2017-11-21T22:32:19.959Z,15.40
2017-11-21T22:34:47.505Z,12.00
2017-11-21T22:37:15.868Z,12.93
2017-11-21T22:39:43.387Z,13.90
2017-11-21T22:42:10.905Z,12.40
2017-11-21T22:44:38.465Z,13.53
2017-11-21T22:47:06.007Z,12.23
2017-11-21T22:49:33.532Z,13.57
2017-11-21T22:52:01.103Z,43.63
2017-11-21T22:54:28.628Z,16.33
2017-11-21T22:56:56.208Z,24.80
2017-11-21T22:59:24.556Z,27.00
2017-11-21T23:01:52.108Z,30.70
2017-11-21T23:04:19.707Z,21.47
2017-11-21T23:06:47.226Z,21.90
2017-11-21T23:09:14.829Z,20.63
2017-11-21T23:11:42.390Z,22.00
2017-11-21T23:14:09.965Z,17.77
2017-11-21T23:16:37.524Z,18.50
2017-11-21T23:19:05.060Z,16.10
2017-11-21T23:21:32.593Z,15.40
2017-11-21T23:24:00.138Z,16.23
2017-11-21T23:26:28.429Z,15.67
2017-11-21T23:28:56.840Z,15.93
2017-11-21T23:31:24.376Z,15.30
2017-11-21T23:33:52.654Z,19.70
2017-11-21T23:36:20.213Z,25.40
2017-11-21T23:38:47.806Z,26.50
2017-11-21T23:41:15.325Z,41.57
2017-11-21T23:43:42.851Z,16.63
2017-11-21T23:46:10.401Z,14.93
2017-11-21T23:48:37.967Z,17.00
2017-11-21T23:51:05.471Z,23.07
2017-11-21T23:53:33.049Z,19.57
2017-11-21T23:56:00.565Z,35.53
2017-11-21T23:58:28.098Z,23.77
